Pagina principale
METAR-TAF:

METAR-TAF

Aeroporti :

Memmingen, Germania

latitudine: 47-59-33N, longitudine: 10-14-37E, altezza: 633 m

Osservazione

Il bollettino è stato emesso 33 minuti fa, alle 22:20 UTC
Vento 12 kt da sud-ovest
Temperature 7°C
Umidità 87%
Pressione 1008 hPa
Visibilità 10 km o più

METAR: EDJA 152220Z AUTO 22012KT 9999 // FEW011/// SCT067/// BKN094/// 07/05 Q1008

Ora: 00:53 (22:53 UTC)

Previsione

Il bollettino è stato emesso 5 ore e 53 minuti fa, alle 17:00 UTC
Previsione valida dal 15 alle 18 UTC al 16 alle 03 UTC
Vento 10 kt da sud-ovest
Visibilità: 9000 m
Cielo coperto ad un'altezza di 4000 ft
Temporaneamente
dal 15 alle 18 UTC al 15 alle 24 UTC
pioggia

TAF: EDJA 151700Z 1518/1603 22010KT 9000 OVC040 TEMPO 1518/1524 RA

Osservazioni e previsioni meteorologiche di più di 4000 aeroporti (messaggi METAR e TAF).

Le stazioni disponibili sono rappresentate dai dischi gialli e rossi sulla carta.

Puntare il mouse per vedere il nome della stazione.

Clicca sopra per visualizzare le osservazioni e previsioni meteorologiche.

Per cambiare la mappa : fare clic sui pulsanti verdi con una croce nera per ingrandire, il pulsante verde con un trattino per diminuire, o sulla freccia verde per le mappe adiacenti.


METAR-TAF: